Home > Products > Valid Products > TAF

000
FTPQ31 PGUM 300532
TAFGUM
TAF
PGUM 300532Z 3006/3112 07018G28KT P6SM VCSH SCT022 BKN030 BKN120
     FM300900 06013G23KT P6SM VCSH SCT018 SCT035 BKN120
     FM310100 08020G30KT P6SM VCSH SCT016 BKN030 BKN120
     FM310900 09015G25KT P6SM VCSH SCT018 SCT035 BKN120=



000
FTPQ31 PGUM 300532
TAFGUM
TAF
PGUM 300532Z 3006/3112 07018G28KT P6SM VCSH SCT022 BKN030 BKN120
     FM300900 06013G23KT P6SM VCSH SCT018 SCT035 BKN120
     FM310100 08020G30KT P6SM VCSH SCT016 BKN030 BKN120
     FM310900 09015G25KT P6SM VCSH SCT018 SCT035 BKN120=



000
FTPQ31 PGUM 292320
TAFGUM
TAF
PGUM 292320Z 3000/3106 07017G27KT P6SM VCSH SCT022 SCT120
     FM300900 06013G23KT P6SM SCT018 SCT050 BKN120
     FM310100 08018G28KT P6SM VCSH SCT020 BKN035 BKN120=



000
FTPQ31 PGUM 292320
TAFGUM
TAF
PGUM 292320Z 3000/3106 07017G27KT P6SM VCSH SCT022 SCT120
     FM300900 06013G23KT P6SM SCT018 SCT050 BKN120
     FM310100 08018G28KT P6SM VCSH SCT020 BKN035 BKN120=



000
FTPQ31 PGUM 292320
TAFGUM
TAF
PGUM 292320Z 3000/3106 07017G27KT P6SM VCSH SCT022 SCT120
     FM300900 06013G23KT P6SM SCT018 SCT050 BKN120
     FM310100 08018G28KT P6SM VCSH SCT020 BKN035 BKN120=



000
FTPQ31 PGUM 292320
TAFGUM
TAF
PGUM 292320Z 3000/3106 07017G27KT P6SM VCSH SCT022 SCT120
     FM300900 06013G23KT P6SM SCT018 SCT050 BKN120
     FM310100 08018G28KT P6SM VCSH SCT020 BKN035 BKN120=



000
FTPQ31 PGUM 292212 AAF
TAFGUM
TAF AMD
PGUM 292212Z 2922/3024 07017G27KT P6SM VCSH SCT022 SCT120
     FM300900 06013G23KT P6SM SCT018 SCT050 BKN120
     FM302300 08018G28KT P6SM VCSH SCT020 BKN035 BKN120=



000
FTPQ31 PGUM 292212 AAF
TAFGUM
TAF AMD
PGUM 292212Z 2922/3024 07017G27KT P6SM VCSH SCT022 SCT120
     FM300900 06013G23KT P6SM SCT018 SCT050 BKN120
     FM302300 08018G28KT P6SM VCSH SCT020 BKN035 BKN120=



000
FTPQ31 PGUM 291720
TAFGUM
TAF
PGUM 291720Z 2918/3024 06012KT P6SM VCSH SCT020 SCT050
     FM300000 07015G25KT P6SM VCSH SCT022 SCT040
     FM300900 06011KT P6SM SCT020 SCT050 SCT120=



000
FTPQ31 PGUM 291720
TAFGUM
TAF
PGUM 291720Z 2918/3024 06012KT P6SM VCSH SCT020 SCT050
     FM300000 07015G25KT P6SM VCSH SCT022 SCT040
     FM300900 06011KT P6SM SCT020 SCT050 SCT120=



000
FTPQ31 PGUM 291720
TAFGUM
TAF
PGUM 291720Z 2918/3024 06012KT P6SM VCSH SCT020 SCT050
     FM300000 07015G25KT P6SM VCSH SCT022 SCT040
     FM300900 06011KT P6SM SCT020 SCT050 SCT120=



000
FTPQ31 PGUM 291720
TAFGUM
TAF
PGUM 291720Z 2918/3024 06012KT P6SM VCSH SCT020 SCT050
     FM300000 07015G25KT P6SM VCSH SCT022 SCT040
     FM300900 06011KT P6SM SCT020 SCT050 SCT120=



000
FTPQ31 PGUM 291133
TAFGUM
TAF
PGUM 291133Z 2912/3018 06010KT P6SM VCSH SCT020 SCT050
     FM300100 07015G25KT P6SM VCSH SCT022 SCT040
     FM300900 06011KT P6SM SCT020 SCT050 SCT120=



000
FTPQ31 PGUM 291133
TAFGUM
TAF
PGUM 291133Z 2912/3018 06010KT P6SM VCSH SCT020 SCT050
     FM300100 07015G25KT P6SM VCSH SCT022 SCT040
     FM300900 06011KT P6SM SCT020 SCT050 SCT120=



000
FTPQ31 PGUM 291133
TAFGUM
TAF
PGUM 291133Z 2912/3018 06010KT P6SM VCSH SCT020 SCT050
     FM300100 07015G25KT P6SM VCSH SCT022 SCT040
     FM300900 06011KT P6SM SCT020 SCT050 SCT120=



000
FTPQ31 PGUM 291133
TAFGUM
TAF
PGUM 291133Z 2912/3018 06010KT P6SM VCSH SCT020 SCT050
     FM300100 07015G25KT P6SM VCSH SCT022 SCT040
     FM300900 06011KT P6SM SCT020 SCT050 SCT120=



000
FTPQ31 PGUM 290544
TAFGUM
TAF
PGUM 290544Z 2906/3012 08016G26KT P6SM VCSH SCT022
     FM290900 06009KT P6SM VCSH SCT020 SCT050
     FM300100 07015G25KT P6SM VCSH SCT022 SCT040
     FM300900 06011KT P6SM SCT020 SCT050 SCT120=



000
FTPQ31 PGUM 290544
TAFGUM
TAF
PGUM 290544Z 2906/3012 08016G26KT P6SM VCSH SCT022
     FM290900 06009KT P6SM VCSH SCT020 SCT050
     FM300100 07015G25KT P6SM VCSH SCT022 SCT040
     FM300900 06011KT P6SM SCT020 SCT050 SCT120=



000
FTPQ31 PGUM 290544
TAFGUM
TAF
PGUM 290544Z 2906/3012 08016G26KT P6SM VCSH SCT022
     FM290900 06009KT P6SM VCSH SCT020 SCT050
     FM300100 07015G25KT P6SM VCSH SCT022 SCT040
     FM300900 06011KT P6SM SCT020 SCT050 SCT120=



000
FTPQ31 PGUM 290544
TAFGUM
TAF
PGUM 290544Z 2906/3012 08016G26KT P6SM VCSH SCT022
     FM290900 06009KT P6SM VCSH SCT020 SCT050
     FM300100 07015G25KT P6SM VCSH SCT022 SCT040
     FM300900 06011KT P6SM SCT020 SCT050 SCT120=



000
FTPQ31 PGUM 290237 AAD
TAFGUM
TAF AMD
PGUM 290237Z 2903/3006 08016G26KT P6SM VCSH SCT020 BKN030
     FM290900 06009KT P6SM VCSH SCT020 SCT050
     FM300100 07015G25KT P6SM VCSH SCT022 SCT040=



000
FTPQ31 PGUM 290237 AAD
TAFGUM
TAF AMD
PGUM 290237Z 2903/3006 08016G26KT P6SM VCSH SCT020 BKN030
     FM290900 06009KT P6SM VCSH SCT020 SCT050
     FM300100 07015G25KT P6SM VCSH SCT022 SCT040=



000
FTPQ31 PGUM 282324
TAFGUM
TAF
PGUM 282324Z 2900/3006 07015G25KT P6SM VCSH SCT020 SCT050
     FM290900 06009KT P6SM VCSH SCT020 SCT050
     FM300100 07015G25KT P6SM VCSH SCT022 SCT050=



000
FTPQ31 PGUM 282324
TAFGUM
TAF
PGUM 282324Z 2900/3006 07015G25KT P6SM VCSH SCT020 SCT050
     FM290900 06009KT P6SM VCSH SCT020 SCT050
     FM300100 07015G25KT P6SM VCSH SCT022 SCT050=



000
FTPQ31 PGUM 282230 AAC
TAFGUM
TAF AMD
PGUM 282230Z 2823/2924 07011KT P6SM VCSH SCT022 SCT050
     FM290100 07015G25KT P6SM VCSH SCT025 SCT050
     FM290900 06009KT P6SM VCSH SCT020 SCT050
     FM292300 07015G25KT P6SM VCSH SCT022 SCT050=



000
FTPQ31 PGUM 282230 AAC
TAFGUM
TAF AMD
PGUM 282230Z 2823/2924 07011KT P6SM VCSH SCT022 SCT050
     FM290100 07015G25KT P6SM VCSH SCT025 SCT050
     FM290900 06009KT P6SM VCSH SCT020 SCT050
     FM292300 07015G25KT P6SM VCSH SCT022 SCT050=



000
FTPQ31 PGUM 281750
TAFGUM
TAF
PGUM 281750Z 2818/2924 07011KT P6SM VCSH FEW020 SCT050 SCT120
      TEMPO 2818/2822 -SHRA SCT016 BKN030
     FM290100 07015G25KT P6SM VCSH FEW020 SCT050 SCT120=



000
FTPQ31 PGUM 281750
TAFGUM
TAF
PGUM 281750Z 2818/2924 07011KT P6SM VCSH FEW020 SCT050 SCT120
      TEMPO 2818/2822 -SHRA SCT016 BKN030
     FM290100 07015G25KT P6SM VCSH FEW020 SCT050 SCT120=



000
FTPQ31 PGUM 281750
TAFGUM
TAF
PGUM 281750Z 2818/2924 07011KT P6SM VCSH FEW020 SCT050 SCT120
      TEMPO 2818/2822 -SHRA SCT016 BKN030
     FM290100 07015G25KT P6SM VCSH FEW020 SCT050 SCT120=



000
FTPQ31 PGUM 281144
TAFGUM
TAF
PGUM 281144Z 2812/2918 06011KT P6SM VCSH FEW020 SCT050 SCT120
      TEMPO 2812/2813 06015G25KT -SHRA SCT016 BKN030
     FM290100 07014G24KT P6SM VCSH FEW020 SCT050 SCT120=



000
FTPQ31 PGUM 281144
TAFGUM
TAF
PGUM 281144Z 2812/2918 06011KT P6SM VCSH FEW020 SCT050 SCT120
      TEMPO 2812/2813 06015G25KT -SHRA SCT016 BKN030
     FM290100 07014G24KT P6SM VCSH FEW020 SCT050 SCT120=



000
FTPQ31 PGUM 281144
TAFGUM
TAF
PGUM 281144Z 2812/2918 06011KT P6SM VCSH FEW020 SCT050 SCT120
      TEMPO 2812/2813 06015G25KT -SHRA SCT016 BKN030
     FM290100 07014G24KT P6SM VCSH FEW020 SCT050 SCT120=



000
FTPQ31 PGUM 281144
TAFGUM
TAF
PGUM 281144Z 2812/2918 06011KT P6SM VCSH FEW020 SCT050 SCT120
      TEMPO 2812/2813 06015G25KT -SHRA SCT016 BKN030
     FM290100 07014G24KT P6SM VCSH FEW020 SCT050 SCT120=



000
FTPQ31 PGUM 280539
TAFGUM
TAF
PGUM 280539Z 2806/2912 06015KT P6SM VCSH SCT018 BKN120
     FM280900 07012KT P6SM VCSH FEW020 SCT050 SCT120=



000
FTPQ31 PGUM 280539
TAFGUM
TAF
PGUM 280539Z 2806/2912 06015KT P6SM VCSH SCT018 BKN120
     FM280900 07012KT P6SM VCSH FEW020 SCT050 SCT120=



000
FTPQ31 PGUM 280539
TAFGUM
TAF
PGUM 280539Z 2806/2912 06015KT P6SM VCSH SCT018 BKN120
     FM280900 07012KT P6SM VCSH FEW020 SCT050 SCT120=



000
FTPQ31 PGUM 280539
TAFGUM
TAF
PGUM 280539Z 2806/2912 06015KT P6SM VCSH SCT018 BKN120
     FM280900 07012KT P6SM VCSH FEW020 SCT050 SCT120=



000
FTPQ31 PGUM 280029 AAA
TAFGUM
TAF AMD
PGUM 280029Z 2800/2906 06018G28KT P6SM VCSH FEW018 SCT050 BKN120
     FM280900 07012KT P6SM VCSH FEW020 SCT050 SCT120=



000
FTPQ31 PGUM 280029 AAA
TAFGUM
TAF AMD
PGUM 280029Z 2800/2906 06018G28KT P6SM VCSH FEW018 SCT050 BKN120
     FM280900 07012KT P6SM VCSH FEW020 SCT050 SCT120=



000
FTPQ31 PGUM 272344
TAFGUM
TAF
PGUM 272344Z 2800/2906 06013KT P6SM VCSH FEW018 SCT050 BKN120
     FM280200 06015G25KT P6SM VCSH FEW018 SCT050 BKN120
     FM280900 07012KT P6SM VCSH FEW020 SCT050 SCT120=



000
FTPQ31 PGUM 272344
TAFGUM
TAF
PGUM 272344Z 2800/2906 06013KT P6SM VCSH FEW018 SCT050 BKN120
     FM280200 06015G25KT P6SM VCSH FEW018 SCT050 BKN120
     FM280900 07012KT P6SM VCSH FEW020 SCT050 SCT120=



000
FTPQ31 PGUM 271720
TAFGUM
TAF
PGUM 271720Z 2718/2824 06011KT P6SM VCSH FEW018 SCT050 BKN120
     FM280100 06015G25KT P6SM VCSH FEW018 SCT050 BKN120
     FM280900 07012KT P6SM VCSH FEW020 SCT050 SCT120=



000
FTPQ31 PGUM 271720
TAFGUM
TAF
PGUM 271720Z 2718/2824 06011KT P6SM VCSH FEW018 SCT050 BKN120
     FM280100 06015G25KT P6SM VCSH FEW018 SCT050 BKN120
     FM280900 07012KT P6SM VCSH FEW020 SCT050 SCT120=



000
FTPQ31 PGUM 271139
TAFGUM
TAF
PGUM 271139Z 2712/2818 05011KT P6SM VCSH SCT016 BKN050 BKN120
      TEMPO 2712/2716 05012G22KT -SHRA SCT014 BKN030
     FM280100 06016G26KT P6SM VCSH FEW018 SCT050 BKN120
     FM280900 06012KT P6SM VCSH FEW020 SCT050 SCT120=



000
FTPQ31 PGUM 271139
TAFGUM
TAF
PGUM 271139Z 2712/2818 05011KT P6SM VCSH SCT016 BKN050 BKN120
      TEMPO 2712/2716 05012G22KT -SHRA SCT014 BKN030
     FM280100 06016G26KT P6SM VCSH FEW018 SCT050 BKN120
     FM280900 06012KT P6SM VCSH FEW020 SCT050 SCT120=



000
FTPQ31 PGUM 271139
TAFGUM
TAF
PGUM 271139Z 2712/2818 05011KT P6SM VCSH SCT016 BKN050 BKN120
      TEMPO 2712/2716 05012G22KT -SHRA SCT014 BKN030
     FM280100 06016G26KT P6SM VCSH FEW018 SCT050 BKN120
     FM280900 06012KT P6SM VCSH FEW020 SCT050 SCT120=



000
FTPQ31 PGUM 271139
TAFGUM
TAF
PGUM 271139Z 2712/2818 05011KT P6SM VCSH SCT016 BKN050 BKN120
      TEMPO 2712/2716 05012G22KT -SHRA SCT014 BKN030
     FM280100 06016G26KT P6SM VCSH FEW018 SCT050 BKN120
     FM280900 06012KT P6SM VCSH FEW020 SCT050 SCT120=



    US Dept of Commerce
    National Oceanic and Atmospheric Administration
    National Weather Service
    1325 East West Highway
    Silver Spring, MD 20910
    Page Author: NWS Internet Services Team
Disclaimer
Information Quality
Credits
Glossary
Privacy Policy
Freedom of Information Act (FOIA)
About Us
Career Opportunities